createdAt,value
2018-12-21T00:00:43.902Z,9.20
2018-12-21T00:03:11.417Z,9.20
2018-12-21T00:05:38.929Z,9.20
2018-12-21T00:08:06.446Z,9.30
2018-12-21T00:10:33.962Z,9.30
2018-12-21T00:13:01.479Z,9.30
2018-12-21T00:15:28.983Z,9.30
2018-12-21T00:17:56.503Z,9.30
2018-12-21T00:20:24.035Z,9.20
2018-12-21T00:22:51.547Z,9.30
2018-12-21T00:25:19.062Z,9.30
2018-12-21T00:27:46.601Z,9.30
2018-12-21T00:30:16.077Z,9.30
2018-12-21T00:32:49.310Z,9.30
2018-12-21T00:35:22.524Z,9.30
2018-12-21T00:37:55.720Z,9.30
2018-12-21T00:40:28.806Z,9.30
2018-12-21T00:43:02.974Z,9.30
2018-12-21T00:45:30.858Z,9.30
2018-12-21T00:47:58.361Z,9.30
2018-12-21T00:50:25.873Z,9.30
2018-12-21T00:52:53.380Z,9.30
2018-12-21T00:55:20.909Z,9.30
2018-12-21T00:57:48.418Z,9.30
2018-12-21T01:00:20.124Z,9.30
2018-12-21T01:02:47.640Z,9.30
2018-12-21T01:05:15.211Z,9.30
2018-12-21T01:07:42.722Z,9.20
2018-12-21T01:10:10.219Z,9.30
2018-12-21T01:12:37.732Z,9.20
2018-12-21T01:15:05.629Z,9.20
2018-12-21T01:17:33.627Z,9.20
2018-12-21T01:20:01.147Z,9.20
2018-12-21T01:22:28.665Z,9.20
2018-12-21T01:24:56.206Z,9.20
2018-12-21T01:27:23.783Z,9.20
2018-12-21T01:29:51.293Z,9.20
2018-12-21T01:32:18.903Z,9.30
2018-12-21T01:34:46.427Z,9.20
2018-12-21T01:37:14.030Z,9.20
2018-12-21T01:39:41.549Z,9.20
2018-12-21T01:42:09.067Z,9.20
2018-12-21T01:44:36.572Z,9.20
2018-12-21T01:47:04.087Z,9.20
2018-12-21T01:49:31.586Z,9.20
2018-12-21T01:51:59.180Z,9.20
2018-12-21T01:54:26.791Z,9.20
2018-12-21T01:56:54.309Z,9.20
2018-12-21T01:59:21.835Z,9.20
2018-12-21T02:01:49.418Z,9.20
2018-12-21T02:04:16.931Z,9.20
2018-12-21T02:06:44.438Z,9.20
2018-12-21T02:09:11.939Z,9.20
2018-12-21T02:11:39.441Z,9.10
2018-12-21T02:14:06.954Z,9.20
2018-12-21T02:16:34.487Z,9.10
2018-12-21T02:19:01.991Z,9.20
2018-12-21T02:21:29.493Z,9.10
2018-12-21T02:23:57.003Z,9.10
2018-12-21T02:26:24.648Z,9.10
2018-12-21T02:28:52.159Z,9.10
2018-12-21T02:31:19.731Z,9.10
2018-12-21T02:33:47.264Z,9.10
2018-12-21T02:36:14.782Z,9.10
2018-12-21T02:38:42.274Z,9.10
2018-12-21T02:41:09.772Z,9.10
2018-12-21T02:43:37.463Z,9.10
2018-12-21T02:46:05.051Z,9.10
2018-12-21T02:48:32.588Z,9.10
2018-12-21T02:51:00.095Z,9.10
2018-12-21T02:53:27.611Z,9.20
2018-12-21T02:55:55.130Z,9.20
2018-12-21T02:58:22.747Z,9.20
2018-12-21T03:00:50.315Z,9.10
2018-12-21T03:03:17.872Z,9.20
2018-12-21T03:05:45.382Z,9.20
2018-12-21T03:08:13.006Z,9.20
2018-12-21T03:10:40.514Z,9.20
2018-12-21T03:13:08.018Z,9.20
2018-12-21T03:15:35.528Z,9.20
2018-12-21T03:18:03.028Z,9.20
2018-12-21T03:20:30.526Z,9.20
2018-12-21T03:22:58.077Z,9.20
2018-12-21T03:25:25.578Z,9.20
2018-12-21T03:27:53.096Z,9.30
2018-12-21T03:30:20.604Z,9.30
2018-12-21T03:32:48.140Z,9.30
2018-12-21T03:35:15.684Z,9.40
2018-12-21T03:37:43.481Z,9.40
2018-12-21T03:40:10.997Z,9.40
2018-12-21T03:42:38.635Z,9.40
2018-12-21T03:45:06.147Z,9.50
2018-12-21T03:47:33.657Z,9.50
2018-12-21T03:50:01.175Z,9.70
2018-12-21T03:52:28.683Z,9.70
2018-12-21T03:54:56.187Z,9.70
2018-12-21T03:57:23.705Z,9.80
2018-12-21T03:59:51.225Z,9.80
2018-12-21T04:02:20.856Z,9.90
2018-12-21T04:04:48.270Z,9.90
2018-12-21T04:07:15.871Z,10.00
2018-12-21T04:09:43.401Z,10.00
2018-12-21T04:12:10.974Z,10.00
2018-12-21T04:14:38.509Z,10.10
2018-12-21T04:17:06.019Z,10.10
2018-12-21T04:19:33.546Z,10.20
2018-12-21T04:22:01.072Z,10.20
2018-12-21T04:24:28.586Z,10.20
2018-12-21T04:26:56.102Z,10.30
2018-12-21T04:29:23.750Z,10.30
2018-12-21T04:31:51.259Z,10.30
2018-12-21T04:34:18.781Z,10.30
2018-12-21T04:36:46.401Z,10.30
2018-12-21T04:39:13.926Z,10.40
2018-12-21T04:41:41.631Z,10.40
2018-12-21T04:44:09.135Z,10.50
2018-12-21T04:46:36.673Z,10.40
2018-12-21T04:49:04.288Z,10.50
2018-12-21T04:51:31.811Z,10.50
2018-12-21T04:53:59.312Z,10.50
2018-12-21T04:56:26.825Z,10.50
2018-12-21T04:58:54.940Z,10.50
2018-12-21T05:01:22.451Z,10.60
2018-12-21T05:03:50.016Z,10.60
2018-12-21T05:06:18.493Z,10.60
2018-12-21T05:08:45.997Z,10.60
2018-12-21T05:11:13.501Z,10.60
2018-12-21T05:13:41.013Z,10.70
2018-12-21T05:16:08.563Z,10.70
2018-12-21T05:18:36.075Z,10.70
2018-12-21T05:21:03.594Z,10.70
2018-12-21T05:23:31.325Z,10.70
2018-12-21T05:25:58.904Z,10.80
2018-12-21T05:28:26.470Z,10.80
2018-12-21T05:30:54.003Z,10.80
2018-12-21T05:33:21.523Z,10.80
2018-12-21T05:35:49.044Z,10.80
2018-12-21T05:38:16.564Z,10.80
2018-12-21T05:40:44.120Z,10.80
2018-12-21T05:43:11.608Z,10.80
2018-12-21T05:45:39.110Z,10.80
2018-12-21T05:48:06.624Z,10.80
2018-12-21T05:50:34.520Z,10.80
2018-12-21T05:53:02.062Z,10.80
2018-12-21T05:55:29.592Z,10.90
2018-12-21T05:57:57.113Z,10.90
2018-12-21T06:00:24.641Z,10.90
2018-12-21T06:02:52.139Z,10.90
2018-12-21T06:05:19.646Z,10.90
2018-12-21T06:07:47.150Z,10.90
2018-12-21T06:10:14.663Z,10.90
2018-12-21T06:12:42.194Z,11.00
2018-12-21T06:15:09.760Z,11.00
2018-12-21T06:17:37.275Z,10.90
2018-12-21T06:20:05.064Z,10.90
2018-12-21T06:22:32.581Z,11.00
2018-12-21T06:25:00.089Z,11.00
2018-12-21T06:27:27.688Z,11.00
2018-12-21T06:29:55.203Z,11.10
2018-12-21T06:32:22.779Z,11.20
2018-12-21T06:34:50.292Z,11.30
2018-12-21T06:37:17.813Z,11.40
2018-12-21T06:39:45.330Z,11.40
2018-12-21T06:42:12.845Z,11.40
2018-12-21T06:44:40.350Z,11.40
2018-12-21T06:47:07.958Z,11.40
2018-12-21T06:49:35.467Z,11.40
2018-12-21T06:52:02.969Z,11.50
2018-12-21T06:54:30.471Z,11.60
2018-12-21T06:56:58.004Z,11.60
2018-12-21T06:59:25.534Z,11.60
2018-12-21T07:01:53.035Z,11.60
2018-12-21T07:04:20.548Z,11.70
2018-12-21T07:06:48.049Z,11.70
2018-12-21T07:09:15.559Z,11.70
2018-12-21T07:11:43.075Z,11.70
2018-12-21T07:14:10.578Z,11.70
2018-12-21T07:16:38.083Z,11.80
2018-12-21T07:19:05.590Z,11.80
2018-12-21T07:21:33.114Z,11.90
2018-12-21T07:24:00.617Z,11.90
2018-12-21T07:26:28.146Z,11.90
2018-12-21T07:28:55.727Z,12.00
2018-12-21T07:31:23.234Z,12.00
2018-12-21T07:33:50.756Z,12.00
2018-12-21T07:36:18.274Z,12.10
2018-12-21T07:38:45.842Z,12.10
2018-12-21T07:41:13.368Z,12.20
2018-12-21T07:43:40.890Z,12.20
2018-12-21T07:46:08.391Z,12.20
2018-12-21T07:48:35.916Z,12.20
2018-12-21T07:51:03.451Z,12.20
2018-12-21T07:53:35.759Z,12.30
2018-12-21T07:56:00.482Z,12.30
2018-12-21T07:58:27.986Z,12.30
2018-12-21T08:00:55.516Z,12.40
2018-12-21T08:03:23.027Z,12.40
2018-12-21T08:05:50.538Z,12.40
2018-12-21T08:08:18.066Z,12.50
2018-12-21T08:10:45.586Z,12.50
2018-12-21T08:13:13.096Z,12.60
2018-12-21T08:15:40.617Z,12.60
2018-12-21T08:18:08.150Z,12.70
2018-12-21T08:20:35.669Z,12.80
2018-12-21T08:23:03.183Z,12.90
2018-12-21T08:25:30.699Z,13.00
2018-12-21T08:27:58.214Z,13.10
2018-12-21T08:30:25.723Z,13.20
2018-12-21T08:32:53.244Z,13.30
2018-12-21T08:35:20.866Z,13.40
2018-12-21T08:37:48.385Z,13.50
2018-12-21T08:40:15.891Z,13.90
2018-12-21T08:42:43.396Z,13.70
2018-12-21T08:45:11.064Z,13.80
2018-12-21T08:47:38.592Z,13.80
2018-12-21T08:50:07.151Z,13.90
2018-12-21T08:52:34.658Z,14.00
2018-12-21T09:07:25.096Z,14.00
2018-12-21T09:09:52.603Z,14.20
2018-12-21T09:12:20.113Z,14.20
2018-12-21T09:14:47.625Z,14.20
2018-12-21T09:17:15.222Z,14.20
2018-12-21T09:19:42.723Z,14.20
2018-12-21T09:22:10.237Z,14.20
2018-12-21T09:24:37.738Z,14.10
2018-12-21T09:27:05.243Z,14.10
2018-12-21T09:29:32.755Z,14.10
2018-12-21T09:32:05.070Z,14.10
2018-12-21T09:34:29.778Z,14.10
2018-12-21T09:36:57.280Z,14.10
2018-12-21T09:39:24.782Z,14.10
2018-12-21T09:41:52.295Z,14.10
2018-12-21T09:44:19.813Z,14.00
2018-12-21T09:46:47.319Z,14.00
2018-12-21T09:49:14.825Z,14.00
2018-12-21T09:51:42.315Z,14.00
2018-12-21T09:54:10.324Z,14.00
2018-12-21T09:56:37.947Z,14.10
2018-12-21T09:59:05.450Z,14.10
2018-12-21T10:01:32.955Z,14.10
2018-12-21T10:04:00.454Z,14.10
2018-12-21T10:06:28.305Z,14.10
2018-12-21T10:08:55.811Z,14.20
2018-12-21T10:11:23.313Z,14.10
2018-12-21T10:13:50.854Z,14.00
2018-12-21T10:16:18.359Z,13.90
2018-12-21T10:18:45.874Z,13.90
2018-12-21T10:21:13.379Z,13.80
2018-12-21T10:23:40.919Z,13.80
2018-12-21T10:26:08.434Z,13.80
2018-12-21T10:28:35.944Z,13.80
2018-12-21T10:31:03.458Z,13.90
2018-12-21T10:33:30.961Z,13.90
2018-12-21T10:35:58.471Z,13.90
2018-12-21T10:38:25.979Z,13.90
2018-12-21T10:40:53.497Z,13.90
2018-12-21T10:43:20.999Z,13.70
2018-12-21T10:45:48.507Z,13.80
2018-12-21T10:48:16.029Z,13.70
2018-12-21T10:50:43.537Z,13.70
2018-12-21T10:53:11.283Z,13.70
2018-12-21T10:55:38.783Z,13.80
2018-12-21T10:58:06.285Z,13.90
2018-12-21T11:00:33.785Z,14.00
2018-12-21T11:03:01.295Z,14.10
2018-12-21T11:05:28.799Z,14.20
2018-12-21T11:07:56.325Z,14.20
2018-12-21T11:10:23.841Z,14.20
2018-12-21T11:12:51.349Z,14.20
2018-12-21T11:15:18.872Z,14.20
2018-12-21T11:17:46.392Z,14.20
2018-12-21T11:20:13.927Z,14.20
2018-12-21T11:22:41.431Z,14.20
2018-12-21T11:25:10.491Z,14.20
2018-12-21T11:27:37.989Z,14.10
2018-12-21T11:30:07.732Z,14.10
2018-12-21T11:32:35.255Z,14.00
2018-12-21T11:35:02.881Z,14.00
2018-12-21T11:37:30.376Z,14.00
2018-12-21T11:39:57.882Z,13.90
2018-12-21T11:42:25.395Z,13.90
2018-12-21T11:44:52.904Z,13.90
2018-12-21T11:47:20.409Z,13.90
2018-12-21T11:49:47.986Z,13.90
2018-12-21T11:52:15.487Z,13.90
2018-12-21T11:54:44.438Z,13.90
2018-12-21T11:57:12.226Z,13.90
2018-12-21T11:59:44.868Z,13.80
2018-12-21T12:02:09.277Z,13.90
2018-12-21T12:04:36.791Z,13.90
2018-12-21T12:07:04.299Z,13.80
2018-12-21T12:09:31.809Z,13.80
2018-12-21T12:11:59.339Z,13.80
2018-12-21T12:14:26.863Z,13.70
2018-12-21T12:16:54.465Z,13.70
2018-12-21T12:19:21.978Z,13.70
2018-12-21T12:21:49.801Z,13.70
2018-12-21T12:24:17.307Z,13.60
2018-12-21T12:26:44.808Z,13.60
2018-12-21T12:29:12.373Z,13.60
2018-12-21T12:31:39.878Z,13.50
2018-12-21T12:34:07.387Z,13.50
2018-12-21T12:36:34.894Z,13.50
2018-12-21T12:39:02.457Z,13.40
2018-12-21T12:41:29.979Z,13.40
2018-12-21T12:43:57.489Z,13.40
2018-12-21T12:46:24.991Z,13.40
2018-12-21T12:48:52.516Z,13.40
2018-12-21T12:51:20.029Z,13.30
2018-12-21T12:53:47.538Z,13.30
2018-12-21T12:56:15.058Z,13.30
2018-12-21T12:58:42.564Z,13.30
2018-12-21T13:01:10.288Z,13.30
2018-12-21T13:03:37.788Z,13.30
2018-12-21T13:06:05.302Z,13.30
2018-12-21T13:08:32.814Z,13.20
2018-12-21T13:11:00.364Z,13.20
2018-12-21T13:13:27.867Z,13.20
2018-12-21T13:15:55.368Z,13.20
2018-12-21T13:18:22.892Z,13.20
2018-12-21T13:20:50.404Z,13.10
2018-12-21T13:23:17.920Z,13.10
2018-12-21T13:25:45.440Z,13.10
2018-12-21T13:28:12.975Z,13.10
2018-12-21T13:30:40.489Z,13.00
2018-12-21T13:33:08.001Z,13.00
2018-12-21T13:35:35.511Z,13.00
2018-12-21T13:38:03.021Z,13.00
2018-12-21T13:40:30.521Z,13.00
2018-12-21T13:42:58.027Z,13.00
2018-12-21T13:45:25.561Z,13.00
2018-12-21T13:47:53.070Z,13.00
2018-12-21T13:50:20.617Z,13.00
2018-12-21T13:52:48.119Z,12.90
2018-12-21T13:55:20.152Z,12.90
2018-12-21T13:57:45.144Z,12.90
2018-12-21T14:00:12.652Z,13.00
2018-12-21T14:02:40.151Z,13.00
2018-12-21T14:05:07.662Z,13.00
2018-12-21T14:07:35.214Z,12.90
2018-12-21T14:10:03.925Z,12.90
2018-12-21T14:12:31.430Z,12.90
2018-12-21T14:14:58.942Z,12.90
2018-12-21T14:17:26.467Z,12.90
2018-12-21T14:19:54.088Z,12.80
2018-12-21T14:22:21.611Z,12.80
2018-12-21T14:24:49.192Z,12.90
2018-12-21T14:27:16.710Z,12.80
2018-12-21T14:29:44.238Z,12.90
2018-12-21T14:32:11.742Z,12.80
2018-12-21T14:34:39.259Z,12.80
2018-12-21T14:37:06.771Z,12.70
2018-12-21T14:39:34.279Z,12.80
2018-12-21T14:42:01.864Z,12.80
2018-12-21T14:44:29.382Z,12.70
2018-12-21T14:46:57.058Z,12.70
2018-12-21T14:49:24.561Z,12.70
2018-12-21T14:51:52.088Z,12.70
2018-12-21T14:54:19.594Z,12.70
2018-12-21T14:56:47.118Z,12.70
2018-12-21T14:59:14.944Z,12.70
2018-12-21T15:01:42.456Z,12.70
2018-12-21T15:04:09.970Z,12.70
2018-12-21T15:06:37.560Z,12.70
2018-12-21T15:09:06.056Z,12.70
2018-12-21T15:11:33.577Z,14.00
2018-12-21T15:14:01.081Z,12.70
2018-12-21T15:16:28.591Z,12.60
2018-12-21T15:18:56.102Z,12.60
2018-12-21T15:21:23.615Z,12.60
2018-12-21T15:26:23.969Z,12.60
2018-12-21T15:28:51.477Z,12.60
2018-12-21T15:31:18.983Z,12.60
2018-12-21T15:33:46.523Z,12.60
2018-12-21T15:36:14.200Z,12.60
2018-12-21T15:38:41.705Z,12.60
2018-12-21T15:41:09.222Z,12.60
2018-12-21T15:43:37.457Z,12.60
2018-12-21T15:46:04.963Z,12.60
2018-12-21T15:48:32.478Z,12.50
2018-12-21T15:51:00.082Z,12.40
2018-12-21T15:53:28.230Z,12.40
2018-12-21T15:55:55.746Z,12.40
2018-12-21T15:58:23.381Z,12.40
2018-12-21T16:00:50.889Z,12.50
2018-12-21T16:03:18.424Z,12.40
2018-12-21T16:05:45.940Z,12.40
2018-12-21T16:08:13.445Z,12.40
2018-12-21T16:10:40.961Z,12.40
2018-12-21T16:13:08.481Z,12.40
2018-12-21T16:15:36.006Z,12.30
2018-12-21T16:18:03.524Z,12.30
2018-12-21T16:20:31.036Z,12.30
2018-12-21T16:22:58.709Z,12.40
2018-12-21T16:25:26.273Z,12.40
2018-12-21T16:27:54.006Z,12.40
2018-12-21T16:30:21.594Z,12.40
2018-12-21T16:32:49.115Z,12.40
2018-12-21T16:35:16.627Z,12.40
2018-12-21T16:37:44.257Z,12.30
2018-12-21T16:40:11.783Z,12.30
2018-12-21T16:42:39.977Z,12.30
2018-12-21T16:45:08.551Z,12.30
2018-12-21T16:47:36.059Z,12.30
2018-12-21T16:52:42.264Z,12.20
2018-12-21T16:55:09.789Z,12.20
2018-12-21T16:57:37.393Z,12.20
2018-12-21T17:00:08.728Z,12.30
2018-12-21T17:02:36.277Z,12.30
2018-12-21T17:05:04.642Z,12.20
2018-12-21T17:07:32.147Z,12.10
2018-12-21T17:09:59.690Z,12.20
2018-12-21T17:12:27.200Z,12.10
2018-12-21T17:14:54.716Z,12.20
2018-12-21T17:17:22.638Z,12.20
2018-12-21T17:19:50.202Z,12.10
2018-12-21T17:22:17.725Z,12.10
2018-12-21T17:24:45.236Z,12.10
2018-12-21T17:27:12.748Z,12.10
2018-12-21T17:29:40.258Z,12.10
2018-12-21T17:32:07.792Z,12.10
2018-12-21T17:34:35.295Z,12.10
2018-12-21T17:37:02.814Z,12.10
2018-12-21T17:39:30.429Z,12.10
2018-12-21T17:41:57.958Z,12.10
2018-12-21T17:44:25.474Z,12.10
2018-12-21T17:46:52.970Z,12.00
2018-12-21T17:49:20.500Z,12.00
2018-12-21T17:51:48.006Z,12.00
2018-12-21T17:54:15.552Z,12.00
2018-12-21T17:56:43.058Z,12.00
2018-12-21T17:59:10.582Z,12.00
2018-12-21T18:01:38.452Z,12.00
2018-12-21T18:04:05.956Z,11.90
2018-12-21T18:06:33.474Z,11.90
2018-12-21T18:09:00.986Z,11.90
2018-12-21T18:11:28.490Z,11.90
2018-12-21T18:13:56.048Z,11.90
2018-12-21T18:16:23.609Z,11.90
2018-12-21T18:18:51.126Z,11.90
2018-12-21T18:21:18.630Z,11.90
2018-12-21T18:23:46.472Z,11.90
2018-12-21T18:26:13.980Z,11.80
2018-12-21T18:28:41.492Z,11.80
2018-12-21T18:31:11.436Z,11.80
2018-12-21T18:33:39.172Z,11.80
2018-12-21T18:36:06.694Z,11.80
2018-12-21T18:38:34.262Z,11.80
2018-12-21T18:41:01.772Z,11.80
2018-12-21T18:43:29.325Z,11.80
2018-12-21T18:45:56.896Z,11.70
2018-12-21T18:48:24.408Z,11.60
2018-12-21T18:50:51.904Z,11.60
2018-12-21T18:53:19.516Z,11.60
2018-12-21T18:55:47.862Z,11.60
2018-12-21T18:58:15.380Z,11.50
2018-12-21T19:00:42.892Z,11.50
2018-12-21T19:03:10.396Z,11.50
2018-12-21T19:05:37.901Z,11.60
2018-12-21T19:08:05.405Z,11.70
2018-12-21T19:10:32.915Z,11.70
2018-12-21T19:13:00.425Z,11.70
2018-12-21T19:15:27.933Z,11.60
2018-12-21T19:17:55.472Z,11.50
2018-12-21T19:20:22.976Z,11.50
2018-12-21T19:22:50.510Z,11.50
2018-12-21T19:25:18.309Z,11.50
2018-12-21T19:27:45.813Z,11.50
2018-12-21T19:30:13.309Z,11.50
2018-12-21T19:32:40.920Z,11.50
2018-12-21T19:35:08.419Z,11.40
2018-12-21T19:37:35.931Z,11.50
2018-12-21T19:40:04.977Z,11.50
2018-12-21T19:42:32.485Z,11.40
2018-12-21T19:45:00.118Z,11.50
2018-12-21T19:47:28.696Z,11.50
2018-12-21T19:49:56.219Z,11.50
2018-12-21T19:52:23.718Z,11.50
2018-12-21T19:54:51.231Z,11.50
2018-12-21T19:57:18.741Z,11.50
2018-12-21T19:59:46.241Z,11.40
2018-12-21T20:02:13.779Z,11.50
2018-12-21T20:04:41.289Z,11.50
2018-12-21T20:07:08.837Z,11.50
2018-12-21T20:09:36.337Z,11.50
2018-12-21T20:12:03.972Z,11.40
2018-12-21T20:14:31.482Z,11.40
2018-12-21T20:16:59.084Z,11.30
2018-12-21T20:19:26.581Z,11.30
2018-12-21T20:21:54.312Z,11.30
2018-12-21T20:24:23.227Z,11.30
2018-12-21T20:26:50.930Z,11.20
2018-12-21T20:29:18.433Z,11.10
2018-12-21T20:31:45.935Z,11.20
2018-12-21T20:34:13.466Z,11.10
2018-12-21T20:36:40.977Z,11.10
2018-12-21T20:39:11.226Z,11.10
2018-12-21T20:41:38.734Z,11.10
2018-12-21T20:44:06.244Z,11.10
2018-12-21T20:46:33.755Z,11.20
2018-12-21T20:49:01.268Z,11.20
2018-12-21T20:51:28.776Z,11.20
2018-12-21T20:53:56.279Z,11.30
2018-12-21T20:56:23.810Z,11.30
2018-12-21T20:58:51.548Z,11.30
2018-12-21T21:01:19.247Z,11.30
2018-12-21T21:03:46.753Z,11.40
2018-12-21T21:06:14.284Z,11.30
2018-12-21T21:08:41.796Z,11.30
2018-12-21T21:11:09.303Z,11.30
2018-12-21T21:13:36.826Z,11.30
2018-12-21T21:16:04.330Z,11.30
2018-12-21T21:18:31.830Z,11.20
2018-12-21T21:20:59.344Z,11.30
2018-12-21T21:23:26.903Z,11.20
2018-12-21T21:25:54.447Z,11.20
2018-12-21T21:28:21.959Z,11.10
2018-12-21T21:30:49.473Z,11.10
2018-12-21T21:33:16.985Z,11.10
2018-12-21T21:35:44.497Z,11.10
2018-12-21T21:38:12.023Z,11.10
2018-12-21T21:40:39.527Z,11.10
2018-12-21T21:43:08.071Z,11.20
2018-12-21T21:45:35.603Z,11.20
2018-12-21T21:48:03.115Z,11.20
2018-12-21T21:50:30.655Z,11.20
2018-12-21T21:52:58.159Z,11.10
2018-12-21T21:55:26.052Z,11.10
2018-12-21T21:57:53.572Z,11.10
2018-12-21T22:00:21.093Z,11.10
2018-12-21T22:02:48.611Z,11.10
2018-12-21T22:05:16.112Z,11.10
2018-12-21T22:07:43.632Z,11.20
2018-12-21T22:10:11.136Z,11.20
2018-12-21T22:12:38.675Z,11.10
2018-12-21T22:15:07.244Z,11.10
2018-12-21T22:17:34.754Z,11.20
2018-12-21T22:20:02.551Z,11.10
2018-12-21T22:22:30.080Z,11.10
2018-12-21T22:24:57.588Z,11.10
2018-12-21T22:27:25.102Z,11.10
2018-12-21T22:29:52.603Z,11.00
2018-12-21T22:32:20.120Z,11.00
2018-12-21T22:34:47.626Z,11.00
2018-12-21T22:37:15.138Z,11.00
2018-12-21T22:39:42.647Z,11.00
2018-12-21T22:42:10.153Z,11.00
2018-12-21T22:44:37.668Z,11.00
2018-12-21T22:47:05.183Z,11.00
2018-12-21T22:49:32.698Z,11.00
2018-12-21T22:52:00.210Z,11.10
2018-12-21T22:54:27.730Z,11.10
2018-12-21T22:56:55.238Z,11.20
2018-12-21T22:59:22.746Z,11.20
2018-12-21T23:01:50.266Z,11.20
2018-12-21T23:04:17.777Z,11.20
2018-12-21T23:06:45.306Z,11.20
2018-12-21T23:09:12.817Z,11.30
2018-12-21T23:11:40.356Z,11.20
2018-12-21T23:14:07.858Z,11.20
2018-12-21T23:16:35.362Z,11.20
2018-12-21T23:19:02.903Z,11.20
2018-12-21T23:21:30.429Z,11.30
2018-12-21T23:23:58.075Z,11.30
2018-12-21T23:26:25.590Z,11.20
2018-12-21T23:28:53.095Z,11.30
2018-12-21T23:31:20.609Z,11.20
2018-12-21T23:33:48.116Z,11.20
2018-12-21T23:36:15.625Z,11.10
2018-12-21T23:38:43.141Z,11.10
2018-12-21T23:41:10.667Z,11.10
2018-12-21T23:43:43.254Z,11.00
2018-12-21T23:46:07.735Z,11.00
2018-12-21T23:48:35.346Z,11.00
2018-12-21T23:51:02.859Z,11.00
2018-12-21T23:53:30.376Z,11.00
2018-12-21T23:55:57.890Z,11.00
2018-12-21T23:58:25.407Z,11.00
